Arcadia, Illinois
Current Conditions -  °F | °C
As of 8:55 AM on Friday 31 Oct 2014 (Local Time) from KIJX Reporting Station
Clear Clear  
Wind Chill: 27°   Ceiling: Unl
Heat Index: 38°   Visibility: 10mi
Dew Point: 24°   Wind: 26mph
Humidity: 55%   Direction: 340°NNW
Pressure: 30.27"   Gusts: 32mph
Location:  39.7413°N, 90.2138°W
Report Text: KIJX 311355Z AUTO 34023G28KT 10SM CLR 04/M05 A3027 RMK AO2 T00351047
Loading
Personal Weather Stations






























Interactive Weather Map
Tropical Storm Tracking
New forecast layout! Learn more

10-Day Weather Forecast

Advertisements
Track Severe Weather on mobile